• Join FlightAware (Why Join?)
  • Login
  • US Flag 
07:32AM EDT


 

Airport Tracker/Info


-or-


 

Live Flight TrackerFlight Track Log ✈ RPA3284 ✈ 07-Jul-2013 ✈ KCHS - KCLT

Flight Track Log - Related Links

Times and Time Zones

All times are in EDT time to prevent confusion due to time zone crossing. See the RPA3284 flight status page for this flight to view local times or setup timezone preferences in your user account.

Time Position Orientation Groundspeed Altitude Reporting Facility
EDT Latitude Longitude Course Direction KTS MPH feet Rate Location/Type
02:48PM 33.1956 -79.9404 16° North  Level FlightAware Approximate
02:48PM 32.9558 -79.9911 14° North 277 319 6,300  Level Jacksonville Center
02:49PM 33.3014 -79.9159 23° Northeast  Level FlightAware Approximate
02:49PM 33.0347 -79.9711 12° North 303 349 9,200  Level Jacksonville Center
02:50PM 33.4035 -79.8760 North  Level FlightAware Approximate
02:50PM 33.1239 -79.9536 North 334 384 9,900  Level Jacksonville Center
02:51PM 33.5097 -79.8529 11° North  Level FlightAware Approximate
02:51PM 33.2217 -79.9328 10° North 339 390 9,900  Level Jacksonville Center
02:52PM 33.6157 -79.8284 11° North  Level FlightAware Approximate
02:52PM 33.3192 -79.9122 10° North 351 404 10,400  Level Jacksonville Center
02:53PM 33.7168 -79.7900 14° North  Level FlightAware Approximate
02:54PM 33.5203 -79.8606 12° North 361 415 14,900  Level Jacksonville Center
02:55PM 33.6261 -79.8294 14° North 373 429 14,900  Level Jacksonville Center
02:56PM 33.7342 -79.8158 North 384 442 14,900  Level Jacksonville Center
02:57PM 33.8317 -79.8725 334° Northwest 369 425 14,900  Level Jacksonville Center
02:58PM 33.9286 -79.9217 337° Northwest 369 425 14,900  Level Jacksonville Center
02:59PM 34.0217 -79.9736 335° Northwest 369 425 14,900  Level Jacksonville Center
03:00PM 34.1167 -80.0231 337° Northwest 374 430 14,900  Level Jacksonville Center
03:01PM 34.2033 -80.0706 336° Northwest 355 409 14,900  Level Jacksonville Center
03:02PM 34.2858 -80.1206 333° Northwest 336 387 14,900  Level Jacksonville Center
03:03PM 34.3619 -80.1736 330° Northwest 326 375 14,900 -720 Level Jacksonville Center
03:04PM 34.4342 -80.2292 328° Northwest 319 367 13,500 -1,380 Descending Jacksonville Center
03:05PM 34.4403 -80.3269 274° West 266 306 12,200 -1,260 Descending Jacksonville Center
03:06PM 34.4631 -80.4169 287° West 266 306 11,000 -660 Descending Jacksonville Center
03:07PM 34.5450 -80.4500 342° North 265 305 10,900 -60 Descending Jacksonville Center
03:08PM 34.6486 -80.4861 344° North 308 354 10,900  Level Atlanta Center
03:09PM 34.7372 -80.5203 342° North 308 354 11,000  Climbing Atlanta Center
03:10PM 34.8322 -80.5569 342° North 307 353 11,000  Level Atlanta Center
03:11PM 34.8978 -80.5894 338° Northwest 305 351 11,000  Level Atlanta Center
03:12PM 34.9628 -80.6706 314° West 293 337 11,000 -540 Level Atlanta Center
03:13PM 35.0208 -80.7417 315° West 291 335 9,900 -1,020 Descending Atlanta Center
03:14PM 35.0986 -80.7589 350° North 300 345 9,000 -600 Descending Atlanta Center
03:15PM 35.1714 -80.7536 North 254 292 8,800 -840 Descending Atlanta Center
03:16PM 35.2381 -80.7458 North 252 290 7,400 -1,140 Descending Atlanta Center
03:17PM 35.2889 -80.6928 40° Northeast 251 289 6,600 -1,140 Descending Atlanta Center
03:18PM 35.3414 -80.7058 349° North 200 230 5,200 -1,380 Descending Atlanta Center
03:19PM 35.3489 -80.7567 280° West 181 208 4,000 -960 Descending Atlanta Center
03:20PM 35.3147 -80.8039 228° Southwest 175 201 3,400 -600 Descending Atlanta Center